sensor_id;sensor_type;location;lat;lon;timestamp;pressure;altitude;pressure_sealevel;temperature;humidity
69971;BME280;57301;50.328;8.542;2023-09-19T00:00:41;97895.28;;;17.33;86.86
69971;BME280;57301;50.328;8.542;2023-09-19T00:03:09;97895.91;;;17.22;87.79
69971;BME280;57301;50.328;8.542;2023-09-19T00:05:37;97896.78;;;17.09;87.97
69971;BME280;57301;50.328;8.542;2023-09-19T00:08:12;97904.41;;;17.12;87.64
69971;BME280;57301;50.328;8.542;2023-09-19T00:10:40;97903.59;;;17.12;88.14
69971;BME280;57301;50.328;8.542;2023-09-19T00:13:08;97906.09;;;17.13;88.43
69971;BME280;57301;50.328;8.542;2023-09-19T00:15:41;97903.81;;;17.17;87.97
69971;BME280;57301;50.328;8.542;2023-09-19T00:18:08;97910.44;;;17.21;87.73
69971;BME280;57301;50.328;8.542;2023-09-19T00:20:36;97918.13;;;17.04;88.38
69971;BME280;57301;50.328;8.542;2023-09-19T00:23:03;97912.53;;;17.19;87.89
69971;BME280;57301;50.328;8.542;2023-09-19T00:25:31;97923.72;;;17.09;87.52
69971;BME280;57301;50.328;8.542;2023-09-19T00:27:58;97919.16;;;16.97;88.59
69971;BME280;57301;50.328;8.542;2023-09-19T00:30:25;97923.91;;;17.14;88.04
69971;BME280;57301;50.328;8.542;2023-09-19T00:32:52;97933.22;;;17.18;87.42
69971;BME280;57301;50.328;8.542;2023-09-19T00:35:19;97924.94;;;17.20;87.27
69971;BME280;57301;50.328;8.542;2023-09-19T00:37:46;97931.75;;;17.29;86.92
69971;BME280;57301;50.328;8.542;2023-09-19T00:40:12;97930.50;;;17.38;86.56
69971;BME280;57301;50.328;8.542;2023-09-19T00:42:39;97924.91;;;17.33;87.01
69971;BME280;57301;50.328;8.542;2023-09-19T00:45:08;97925.31;;;17.37;86.56
69971;BME280;57301;50.328;8.542;2023-09-19T00:47:39;97929.69;;;17.31;87.00
69971;BME280;57301;50.328;8.542;2023-09-19T00:50:08;97928.44;;;17.34;86.69
69971;BME280;57301;50.328;8.542;2023-09-19T00:52:35;97936.31;;;17.35;86.82
69971;BME280;57301;50.328;8.542;2023-09-19T00:55:06;97937.34;;;17.34;86.98
69971;BME280;57301;50.328;8.542;2023-09-19T00:57:34;97942.56;;;17.16;87.09
69971;BME280;57301;50.328;8.542;2023-09-19T01:00:02;97949.41;;;17.05;86.61
69971;BME280;57301;50.328;8.542;2023-09-19T01:02:34;97953.31;;;17.23;86.02
69971;BME280;57301;50.328;8.542;2023-09-19T01:05:01;97951.47;;;17.16;85.57
69971;BME280;57301;50.328;8.542;2023-09-19T01:07:31;97958.91;;;17.34;84.56
69971;BME280;57301;50.328;8.542;2023-09-19T01:10:06;97958.94;;;17.21;84.13
69971;BME280;57301;50.328;8.542;2023-09-19T01:23:20;97982.97;;;17.16;84.48
69971;BME280;57301;50.328;8.542;2023-09-19T01:29:39;97978.22;;;17.11;84.23
69971;BME280;57301;50.328;8.542;2023-09-19T01:32:08;97975.72;;;17.10;84.18
69971;BME280;57301;50.328;8.542;2023-09-19T01:37:17;97989.19;;;16.83;84.05
69971;BME280;57301;50.328;8.542;2023-09-19T01:39:49;97995.63;;;16.82;84.00
69971;BME280;57301;50.328;8.542;2023-09-19T01:42:37;98001.00;;;16.82;84.38
69971;BME280;57301;50.328;8.542;2023-09-19T01:45:30;97993.06;;;16.61;84.35
69971;BME280;57301;50.328;8.542;2023-09-19T01:53:26;97999.88;;;16.50;85.33
69971;BME280;57301;50.328;8.542;2023-09-19T01:55:57;98013.13;;;16.45;85.24
69971;BME280;57301;50.328;8.542;2023-09-19T01:58:35;98004.59;;;16.35;85.79
69971;BME280;57301;50.328;8.542;2023-09-19T02:01:05;98008.34;;;16.41;85.62
69971;BME280;57301;50.328;8.542;2023-09-19T02:03:34;98014.53;;;16.28;86.13
69971;BME280;57301;50.328;8.542;2023-09-19T02:06:02;98028.16;;;16.26;86.20
69971;BME280;57301;50.328;8.542;2023-09-19T02:08:30;98016.25;;;16.01;87.19
69971;BME280;57301;50.328;8.542;2023-09-19T02:10:59;98024.31;;;16.01;86.61
69971;BME280;57301;50.328;8.542;2023-09-19T02:13:26;98024.31;;;16.01;86.96
69971;BME280;57301;50.328;8.542;2023-09-19T02:15:54;98017.91;;;16.02;87.05
69971;BME280;57301;50.328;8.542;2023-09-19T02:18:22;98017.25;;;15.93;86.27
69971;BME280;57301;50.328;8.542;2023-09-19T02:20:48;98023.66;;;15.85;86.72
69971;BME280;57301;50.328;8.542;2023-09-19T02:23:15;98014.13;;;15.90;86.51
69971;BME280;57301;50.328;8.542;2023-09-19T02:25:42;98020.31;;;15.83;87.42
69971;BME280;57301;50.328;8.542;2023-09-19T02:28:09;98026.75;;;15.89;87.17
69971;BME280;57301;50.328;8.542;2023-09-19T02:30:36;98022.38;;;15.81;87.61
69971;BME280;57301;50.328;8.542;2023-09-19T02:33:03;98026.53;;;15.84;87.03
69971;BME280;57301;50.328;8.542;2023-09-19T02:35:30;98026.06;;;15.74;86.62
69971;BME280;57301;50.328;8.542;2023-09-19T02:38:02;98022.81;;;15.85;86.36
69971;BME280;57301;50.328;8.542;2023-09-19T02:40:33;98022.78;;;15.78;85.71
69971;BME280;57301;50.328;8.542;2023-09-19T02:43:02;98032.03;;;15.69;86.48
69971;BME280;57301;50.328;8.542;2023-09-19T02:45:29;98037.03;;;15.51;86.58
69971;BME280;57301;50.328;8.542;2023-09-19T02:47:56;98024.41;;;15.73;86.54
69971;BME280;57301;50.328;8.542;2023-09-19T02:50:23;98021.50;;;15.74;85.80
69971;BME280;57301;50.328;8.542;2023-09-19T02:52:50;98029.16;;;15.77;86.26
69971;BME280;57301;50.328;8.542;2023-09-19T02:55:18;98027.75;;;15.81;86.26
69971;BME280;57301;50.328;8.542;2023-09-19T02:57:50;98036.03;;;15.80;86.57
69971;BME280;57301;50.328;8.542;2023-09-19T03:00:18;98038.69;;;15.73;85.42
69971;BME280;57301;50.328;8.542;2023-09-19T03:02:55;98046.75;;;15.73;85.52
69971;BME280;57301;50.328;8.542;2023-09-19T03:05:22;98050.28;;;15.52;86.09
69971;BME280;57301;50.328;8.542;2023-09-19T03:07:52;98045.69;;;15.46;85.85
69971;BME280;57301;50.328;8.542;2023-09-19T03:10:20;98046.59;;;15.53;86.64
69971;BME280;57301;50.328;8.542;2023-09-19T03:12:47;98053.38;;;15.49;87.06
69971;BME280;57301;50.328;8.542;2023-09-19T03:15:15;98043.44;;;15.50;86.51
69971;BME280;57301;50.328;8.542;2023-09-19T03:17:45;98046.91;;;15.44;86.11
69971;BME280;57301;50.328;8.542;2023-09-19T03:20:12;98050.38;;;15.38;86.38
69971;BME280;57301;50.328;8.542;2023-09-19T03:22:44;98055.31;;;15.34;87.10
69971;BME280;57301;50.328;8.542;2023-09-19T03:25:10;98065.63;;;15.30;87.45
69971;BME280;57301;50.328;8.542;2023-09-19T03:27:39;98057.56;;;15.30;87.46
69971;BME280;57301;50.328;8.542;2023-09-19T03:30:06;98058.72;;;15.21;87.75
69971;BME280;57301;50.328;8.542;2023-09-19T03:32:35;98061.72;;;15.33;88.46
69971;BME280;57301;50.328;8.542;2023-09-19T03:35:03;98052.56;;;15.27;86.88
69971;BME280;57301;50.328;8.542;2023-09-19T03:37:32;98064.91;;;15.22;86.64
69971;BME280;57301;50.328;8.542;2023-09-19T03:40:00;98053.75;;;15.18;87.33
69971;BME280;57301;50.328;8.542;2023-09-19T03:42:31;98045.69;;;15.18;86.61
69971;BME280;57301;50.328;8.542;2023-09-19T03:44:58;98053.69;;;15.12;87.21
69971;BME280;57301;50.328;8.542;2023-09-19T03:47:26;98064.03;;;15.15;87.57
69971;BME280;57301;50.328;8.542;2023-09-19T03:49:52;98061.63;;;14.98;88.56
69971;BME280;57301;50.328;8.542;2023-09-19T03:52:18;98054.00;;;15.02;88.09
69971;BME280;57301;50.328;8.542;2023-09-19T03:54:45;98051.72;;;14.99;87.46
69971;BME280;57301;50.328;8.542;2023-09-19T03:57:11;98078.28;;;15.15;86.53
69971;BME280;57301;50.328;8.542;2023-09-19T03:59:39;98059.94;;;15.19;86.91
69971;BME280;57301;50.328;8.542;2023-09-19T04:02:05;98069.16;;;15.10;85.83
69971;BME280;57301;50.328;8.542;2023-09-19T04:04:38;98065.06;;;15.35;85.96
69971;BME280;57301;50.328;8.542;2023-09-19T04:07:04;98058.19;;;15.04;85.54
69971;BME280;57301;50.328;8.542;2023-09-19T04:09:31;98063.09;;;15.22;85.19
69971;BME280;57301;50.328;8.542;2023-09-19T04:11:57;98062.13;;;15.30;85.79
69971;BME280;57301;50.328;8.542;2023-09-19T04:14:24;98069.47;;;15.21;84.92
69971;BME280;57301;50.328;8.542;2023-09-19T04:16:50;98069.34;;;15.29;85.13
69971;BME280;57301;50.328;8.542;2023-09-19T04:19:17;98077.72;;;15.20;85.33
69971;BME280;57301;50.328;8.542;2023-09-19T04:21:43;98075.97;;;15.33;84.37
69971;BME280;57301;50.328;8.542;2023-09-19T04:24:11;98085.78;;;15.41;84.36
69971;BME280;57301;50.328;8.542;2023-09-19T04:26:39;98088.63;;;15.40;84.93
69971;BME280;57301;50.328;8.542;2023-09-19T04:29:06;98092.25;;;15.25;84.76
69971;BME280;57301;50.328;8.542;2023-09-19T04:31:32;98088.69;;;15.46;83.96
69971;BME280;57301;50.328;8.542;2023-09-19T04:33:59;98083.09;;;15.41;83.65
69971;BME280;57301;50.328;8.542;2023-09-19T04:36:31;98095.75;;;15.47;83.42
69971;BME280;57301;50.328;8.542;2023-09-19T04:39:02;98094.34;;;15.58;83.28
69971;BME280;57301;50.328;8.542;2023-09-19T04:41:31;98099.34;;;15.61;83.33
69971;BME280;57301;50.328;8.542;2023-09-19T04:43:57;98102.25;;;15.38;83.57
69971;BME280;57301;50.328;8.542;2023-09-19T04:46:24;98104.09;;;15.59;83.16
69971;BME280;57301;50.328;8.542;2023-09-19T04:48:51;98109.94;;;15.63;83.39
69971;BME280;57301;50.328;8.542;2023-09-19T04:51:17;98104.84;;;15.74;83.36
69971;BME280;57301;50.328;8.542;2023-09-19T04:53:45;98104.31;;;15.85;83.29
69971;BME280;57301;50.328;8.542;2023-09-19T04:56:11;98109.81;;;15.77;83.61
69971;BME280;57301;50.328;8.542;2023-09-19T04:58:38;98110.22;;;15.74;83.53
69971;BME280;57301;50.328;8.542;2023-09-19T05:01:04;98107.88;;;15.65;83.12
69971;BME280;57301;50.328;8.542;2023-09-19T05:03:31;98112.91;;;15.74;83.59
69971;BME280;57301;50.328;8.542;2023-09-19T05:05:57;98122.84;;;15.52;83.91
69971;BME280;57301;50.328;8.542;2023-09-19T05:08:24;98125.59;;;15.59;83.49
69971;BME280;57301;50.328;8.542;2023-09-19T05:10:51;98124.03;;;15.71;83.62
69971;BME280;57301;50.328;8.542;2023-09-19T05:13:17;98118.63;;;15.43;83.55
69971;BME280;57301;50.328;8.542;2023-09-19T05:15:44;98117.53;;;15.59;83.48
69971;BME280;57301;50.328;8.542;2023-09-19T05:18:10;98120.16;;;15.74;83.89
69971;BME280;57301;50.328;8.542;2023-09-19T05:20:37;98130.72;;;15.32;84.09
69971;BME280;57301;50.328;8.542;2023-09-19T05:23:06;98128.53;;;15.64;83.84
69971;BME280;57301;50.328;8.542;2023-09-19T05:25:39;98133.97;;;15.71;83.27
69971;BME280;57301;50.328;8.542;2023-09-19T05:28:07;98141.13;;;15.85;83.30
69971;BME280;57301;50.328;8.542;2023-09-19T05:30:35;98139.31;;;15.92;82.50
69971;BME280;57301;50.328;8.542;2023-09-19T05:33:12;98133.97;;;15.99;82.80
69971;BME280;57301;50.328;8.542;2023-09-19T05:35:38;98135.00;;;15.98;83.01
69971;BME280;57301;50.328;8.542;2023-09-19T05:38:08;98134.50;;;15.88;82.44
69971;BME280;57301;50.328;8.542;2023-09-19T05:40:39;98141.72;;;16.08;82.33
69971;BME280;57301;50.328;8.542;2023-09-19T05:43:09;98137.94;;;16.03;82.06
69971;BME280;57301;50.328;8.542;2023-09-19T05:45:35;98138.94;;;16.02;82.33
69971;BME280;57301;50.328;8.542;2023-09-19T05:48:13;98137.16;;;16.09;82.70
69971;BME280;57301;50.328;8.542;2023-09-19T05:50:39;98141.03;;;15.72;82.62
69971;BME280;57301;50.328;8.542;2023-09-19T05:53:06;98142.34;;;15.61;82.68
69971;BME280;57301;50.328;8.542;2023-09-19T05:55:33;98136.47;;;15.72;82.97
69971;BME280;57301;50.328;8.542;2023-09-19T05:57:59;98140.09;;;15.86;82.30
69971;BME280;57301;50.328;8.542;2023-09-19T06:00:26;98147.72;;;15.82;82.10
69971;BME280;57301;50.328;8.542;2023-09-19T06:02:57;98152.38;;;15.67;82.70
69971;BME280;57301;50.328;8.542;2023-09-19T06:05:25;98152.41;;;15.74;82.37
69971;BME280;57301;50.328;8.542;2023-09-19T06:07:56;98156.47;;;15.42;82.90
69971;BME280;57301;50.328;8.542;2023-09-19T06:10:27;98151.44;;;15.60;82.15
69971;BME280;57301;50.328;8.542;2023-09-19T06:12:58;98154.13;;;15.81;81.98
69971;BME280;57301;50.328;8.542;2023-09-19T06:15:25;98177.28;;;15.82;81.71
69971;BME280;57301;50.328;8.542;2023-09-19T06:17:53;98168.69;;;15.66;81.88
69971;BME280;57301;50.328;8.542;2023-09-19T06:20:23;98170.44;;;15.58;81.79
69971;BME280;57301;50.328;8.542;2023-09-19T06:22:50;98180.44;;;15.86;81.31
69971;BME280;57301;50.328;8.542;2023-09-19T06:25:18;98175.59;;;16.03;80.57
69971;BME280;57301;50.328;8.542;2023-09-19T06:27:50;98186.00;;;15.84;80.46
69971;BME280;57301;50.328;8.542;2023-09-19T06:30:20;98191.22;;;15.93;80.73
69971;BME280;57301;50.328;8.542;2023-09-19T06:32:47;98185.06;;;15.99;80.88
69971;BME280;57301;50.328;8.542;2023-09-19T06:35:15;98193.38;;;16.04;80.54
69971;BME280;57301;50.328;8.542;2023-09-19T06:37:43;98194.41;;;16.03;80.12
69971;BME280;57301;50.328;8.542;2023-09-19T06:40:11;98193.56;;;16.30;79.66
69971;BME280;57301;50.328;8.542;2023-09-19T06:42:42;98205.56;;;16.28;79.34
69971;BME280;57301;50.328;8.542;2023-09-19T06:45:09;98209.69;;;16.58;78.72
69971;BME280;57301;50.328;8.542;2023-09-19T06:47:40;98205.34;;;16.64;78.63
69971;BME280;57301;50.328;8.542;2023-09-19T06:50:07;98207.75;;;16.46;77.89
69971;BME280;57301;50.328;8.542;2023-09-19T06:52:40;98221.25;;;16.24;78.63
69971;BME280;57301;50.328;8.542;2023-09-19T06:55:07;98220.16;;;16.47;78.45
69971;BME280;57301;50.328;8.542;2023-09-19T06:57:35;98227.28;;;16.61;77.01
69971;BME280;57301;50.328;8.542;2023-09-19T07:00:02;98234.66;;;16.46;78.51
69971;BME280;57301;50.328;8.542;2023-09-19T07:02:31;98243.22;;;16.28;78.75
69971;BME280;57301;50.328;8.542;2023-09-19T07:04:58;98240.97;;;16.31;78.27
69971;BME280;57301;50.328;8.542;2023-09-19T07:07:24;98240.03;;;16.46;78.46
69971;BME280;57301;50.328;8.542;2023-09-19T07:09:50;98241.94;;;16.52;78.04
69971;BME280;57301;50.328;8.542;2023-09-19T07:12:17;98248.84;;;16.67;77.48
69971;BME280;57301;50.328;8.542;2023-09-19T07:14:44;98248.66;;;17.10;77.16
69971;BME280;57301;50.328;8.542;2023-09-19T07:17:10;98249.41;;;16.84;74.91
69971;BME280;57301;50.328;8.542;2023-09-19T07:19:37;98263.06;;;16.83;75.92
69971;BME280;57301;50.328;8.542;2023-09-19T07:22:04;98259.34;;;17.38;73.86
69971;BME280;57301;50.328;8.542;2023-09-19T07:24:30;98270.56;;;17.49;73.19
69971;BME280;57301;50.328;8.542;2023-09-19T07:26:57;98262.66;;;17.34;72.58
69971;BME280;57301;50.328;8.542;2023-09-19T07:29:23;98268.63;;;17.29;72.09
69971;BME280;57301;50.328;8.542;2023-09-19T07:31:50;98269.00;;;17.13;71.69
69971;BME280;57301;50.328;8.542;2023-09-19T07:34:16;98271.91;;;17.18;70.99
69971;BME280;57301;50.328;8.542;2023-09-19T07:36:44;98277.91;;;17.07;71.57
69971;BME280;57301;50.328;8.542;2023-09-19T07:39:11;98280.97;;;17.04;69.82
69971;BME280;57301;50.328;8.542;2023-09-19T07:41:48;98288.44;;;17.02;70.84
69971;BME280;57301;50.328;8.542;2023-09-19T07:44:16;98289.44;;;17.55;69.85
69971;BME280;57301;50.328;8.542;2023-09-19T07:46:43;98289.56;;;17.88;67.81
69971;BME280;57301;50.328;8.542;2023-09-19T07:49:10;98297.16;;;17.10;69.21
69971;BME280;57301;50.328;8.542;2023-09-19T07:51:37;98291.84;;;17.91;67.80
69971;BME280;57301;50.328;8.542;2023-09-19T07:54:04;98284.34;;;17.73;67.22
69971;BME280;57301;50.328;8.542;2023-09-19T07:56:31;98293.53;;;18.12;67.88
69971;BME280;57301;50.328;8.542;2023-09-19T07:58:58;98297.28;;;18.31;65.34
69971;BME280;57301;50.328;8.542;2023-09-19T08:01:25;98292.47;;;18.60;64.82
69971;BME280;57301;50.328;8.542;2023-09-19T08:03:54;98288.94;;;18.46;66.10
69971;BME280;57301;50.328;8.542;2023-09-19T08:06:20;98297.47;;;18.16;65.83
69971;BME280;57301;50.328;8.542;2023-09-19T08:08:47;98298.09;;;18.05;65.23
69971;BME280;57301;50.328;8.542;2023-09-19T08:11:15;98303.06;;;17.82;66.51
69971;BME280;57301;50.328;8.542;2023-09-19T08:13:47;98306.81;;;18.20;66.22
69971;BME280;57301;50.328;8.542;2023-09-19T08:16:16;98297.88;;;18.33;65.03
69971;BME280;57301;50.328;8.542;2023-09-19T08:18:47;98304.53;;;18.70;64.22
69971;BME280;57301;50.328;8.542;2023-09-19T08:21:14;98305.25;;;19.17;62.33
69971;BME280;57301;50.328;8.542;2023-09-19T08:23:43;98310.19;;;19.78;59.25
69971;BME280;57301;50.328;8.542;2023-09-19T08:26:09;98310.38;;;19.83;59.56
69971;BME280;57301;50.328;8.542;2023-09-19T08:28:36;98316.34;;;19.92;59.74
69971;BME280;57301;50.328;8.542;2023-09-19T08:31:03;98316.50;;;20.79;57.45
69971;BME280;57301;50.328;8.542;2023-09-19T08:33:32;98319.16;;;21.22;54.32
69971;BME280;57301;50.328;8.542;2023-09-19T08:36:00;98318.47;;;20.47;53.78
69971;BME280;57301;50.328;8.542;2023-09-19T08:38:26;98326.22;;;20.36;53.43
69971;BME280;57301;50.328;8.542;2023-09-19T08:40:57;98327.34;;;19.97;54.03
69971;BME280;57301;50.328;8.542;2023-09-19T08:43:26;98324.31;;;19.80;53.73
69971;BME280;57301;50.328;8.542;2023-09-19T08:48:32;98328.91;;;20.68;50.42
69971;BME280;57301;50.328;8.542;2023-09-19T08:51:06;98324.22;;;20.32;49.08
69971;BME280;57301;50.328;8.542;2023-09-19T08:53:41;98319.19;;;19.72;48.94
69971;BME280;57301;50.328;8.542;2023-09-19T08:56:10;98318.41;;;19.97;49.64
69971;BME280;57301;50.328;8.542;2023-09-19T08:59:04;98325.03;;;20.01;49.40
69971;BME280;57301;50.328;8.542;2023-09-19T09:01:34;98314.19;;;20.01;48.67
69971;BME280;57301;50.328;8.542;2023-09-19T09:04:02;98320.94;;;20.73;48.87
69971;BME280;57301;50.328;8.542;2023-09-19T09:06:29;98329.50;;;20.95;48.72
69971;BME280;57301;50.328;8.542;2023-09-19T09:08:56;98328.13;;;21.04;48.50
69971;BME280;57301;50.328;8.542;2023-09-19T09:11:22;98329.22;;;20.78;48.23
69971;BME280;57301;50.328;8.542;2023-09-19T09:13:52;98325.31;;;20.49;48.44
69971;BME280;57301;50.328;8.542;2023-09-19T09:16:18;98317.59;;;20.96;48.05
69971;BME280;57301;50.328;8.542;2023-09-19T09:18:46;98328.66;;;20.95;48.16
69971;BME280;57301;50.328;8.542;2023-09-19T09:21:19;98324.25;;;21.18;48.10
69971;BME280;57301;50.328;8.542;2023-09-19T09:23:48;98327.16;;;21.54;48.40
69971;BME280;57301;50.328;8.542;2023-09-19T09:26:16;98323.47;;;20.43;48.88
69971;BME280;57301;50.328;8.542;2023-09-19T09:28:46;98340.63;;;20.05;50.43
69971;BME280;57301;50.328;8.542;2023-09-19T09:31:24;98331.13;;;20.78;48.99
69971;BME280;57301;50.328;8.542;2023-09-19T09:33:55;98330.03;;;21.40;48.09
69971;BME280;57301;50.328;8.542;2023-09-19T09:36:40;98325.78;;;20.46;48.82
69971;BME280;57301;50.328;8.542;2023-09-19T09:39:08;98336.88;;;20.88;48.58
69971;BME280;57301;50.328;8.542;2023-09-19T09:41:51;98333.66;;;20.73;48.60
69971;BME280;57301;50.328;8.542;2023-09-19T09:44:18;98330.03;;;21.22;47.99
69971;BME280;57301;50.328;8.542;2023-09-19T09:46:46;98336.34;;;20.98;47.28
69971;BME280;57301;50.328;8.542;2023-09-19T09:49:23;98327.22;;;21.65;46.65
69971;BME280;57301;50.328;8.542;2023-09-19T09:52:02;98337.94;;;21.60;46.07
69971;BME280;57301;50.328;8.542;2023-09-19T09:54:37;98343.13;;;20.88;46.95
69971;BME280;57301;50.328;8.542;2023-09-19T09:57:08;98340.09;;;20.53;47.25
69971;BME280;57301;50.328;8.542;2023-09-19T10:02:17;98332.28;;;21.07;46.81
69971;BME280;57301;50.328;8.542;2023-09-19T10:04:56;98329.50;;;20.95;46.78
69971;BME280;57301;50.328;8.542;2023-09-19T10:07:30;98329.81;;;21.42;45.59
69971;BME280;57301;50.328;8.542;2023-09-19T10:10:04;98325.72;;;21.69;45.39
69971;BME280;57301;50.328;8.542;2023-09-19T10:12:42;98326.63;;;22.12;45.10
69971;BME280;57301;50.328;8.542;2023-09-19T10:15:10;98323.06;;;21.81;45.15
69971;BME280;57301;50.328;8.542;2023-09-19T10:17:38;98316.34;;;22.14;45.17
69971;BME280;57301;50.328;8.542;2023-09-19T10:20:13;98318.59;;;22.17;45.16
69971;BME280;57301;50.328;8.542;2023-09-19T10:23:00;98315.63;;;21.88;45.89
69971;BME280;57301;50.328;8.542;2023-09-19T10:25:27;98317.31;;;21.41;46.41
69971;BME280;57301;50.328;8.542;2023-09-19T10:28:00;98313.81;;;22.66;45.00
69971;BME280;57301;50.328;8.542;2023-09-19T10:30:32;98311.34;;;23.11;43.67
69971;BME280;57301;50.328;8.542;2023-09-19T10:33:02;98316.84;;;21.92;43.74
69971;BME280;57301;50.328;8.542;2023-09-19T10:35:32;98325.22;;;22.33;43.78
69971;BME280;57301;50.328;8.542;2023-09-19T10:38:03;98317.06;;;22.33;42.90
69971;BME280;57301;50.328;8.542;2023-09-19T10:40:33;98309.50;;;22.11;42.95
69971;BME280;57301;50.328;8.542;2023-09-19T10:43:03;98317.13;;;22.68;42.37
69971;BME280;57301;50.328;8.542;2023-09-19T10:45:35;98305.78;;;23.70;41.61
69971;BME280;57301;50.328;8.542;2023-09-19T10:48:05;98314.75;;;22.83;42.46
69971;BME280;57301;50.328;8.542;2023-09-19T10:50:36;98321.94;;;23.24;41.28
69971;BME280;57301;50.328;8.542;2023-09-19T10:53:08;98313.75;;;23.36;41.98
69971;BME280;57301;50.328;8.542;2023-09-19T10:55:37;98326.69;;;21.75;43.05
69971;BME280;57301;50.328;8.542;2023-09-19T10:58:08;98318.50;;;21.93;43.64
69971;BME280;57301;50.328;8.542;2023-09-19T11:00:57;98325.72;;;21.99;43.66
69971;BME280;57301;50.328;8.542;2023-09-19T11:03:28;98319.34;;;22.71;42.71
69971;BME280;57301;50.328;8.542;2023-09-19T11:30:46;98282.94;;;22.37;41.29
69971;BME280;57301;50.328;8.542;2023-09-19T11:33:24;98285.06;;;24.31;38.14
69971;BME280;57301;50.328;8.542;2023-09-19T11:43:49;98284.88;;;23.75;38.87
69971;BME280;57301;50.328;8.542;2023-09-19T11:46:21;98277.06;;;23.79;37.91
69971;BME280;57301;50.328;8.542;2023-09-19T11:48:49;98287.97;;;24.75;36.70
69971;BME280;57301;50.328;8.542;2023-09-19T11:51:23;98279.38;;;23.18;38.04
69971;BME280;57301;50.328;8.542;2023-09-19T11:53:54;98285.44;;;23.49;38.48
69971;BME280;57301;50.328;8.542;2023-09-19T11:56:23;98287.97;;;24.97;36.57
69971;BME280;57301;50.328;8.542;2023-09-19T11:58:52;98281.34;;;24.20;36.76
69971;BME280;57301;50.328;8.542;2023-09-19T12:01:23;98287.81;;;25.42;36.15
69971;BME280;57301;50.328;8.542;2023-09-19T12:03:55;98288.44;;;24.88;37.00
69971;BME280;57301;50.328;8.542;2023-09-19T12:06:27;98282.16;;;24.04;38.17
69971;BME280;57301;50.328;8.542;2023-09-19T12:08:53;98291.22;;;25.32;35.70
69971;BME280;57301;50.328;8.542;2023-09-19T12:11:27;98277.56;;;26.03;34.11
69971;BME280;57301;50.328;8.542;2023-09-19T12:13:54;98284.91;;;25.10;35.35
69971;BME280;57301;50.328;8.542;2023-09-19T12:16:25;98294.78;;;25.11;34.89
69971;BME280;57301;50.328;8.542;2023-09-19T12:18:52;98286.75;;;26.56;33.45
69971;BME280;57301;50.328;8.542;2023-09-19T12:21:24;98277.19;;;26.96;32.55
69971;BME280;57301;50.328;8.542;2023-09-19T12:24:12;98275.53;;;26.52;32.46
69971;BME280;57301;50.328;8.542;2023-09-19T12:26:46;98277.56;;;26.35;32.35
69971;BME280;57301;50.328;8.542;2023-09-19T12:29:20;98271.41;;;26.18;33.22
69971;BME280;57301;50.328;8.542;2023-09-19T12:31:57;98271.97;;;26.89;31.95
69971;BME280;57301;50.328;8.542;2023-09-19T12:34:29;98267.41;;;27.73;31.29
69971;BME280;57301;50.328;8.542;2023-09-19T12:37:09;98258.72;;;27.23;31.42
69971;BME280;57301;50.328;8.542;2023-09-19T12:39:40;98260.34;;;26.35;31.81
69971;BME280;57301;50.328;8.542;2023-09-19T12:42:09;98267.44;;;24.72;34.35
69971;BME280;57301;50.328;8.542;2023-09-19T12:44:37;98259.47;;;26.61;32.97
69971;BME280;57301;50.328;8.542;2023-09-19T12:47:17;98253.81;;;27.25;31.24
69971;BME280;57301;50.328;8.542;2023-09-19T12:50:08;98261.53;;;25.36;34.59
69971;BME280;57301;50.328;8.542;2023-09-19T12:52:47;98253.06;;;27.40;32.00
69971;BME280;57301;50.328;8.542;2023-09-19T12:55:31;98252.69;;;27.16;31.96
69971;BME280;57301;50.328;8.542;2023-09-19T13:00:42;98256.22;;;28.66;30.87
69971;BME280;57301;50.328;8.542;2023-09-19T13:08:28;98252.56;;;26.21;33.54
69971;BME280;57301;50.328;8.542;2023-09-19T13:11:17;98257.56;;;25.49;34.97
69971;BME280;57301;50.328;8.542;2023-09-19T13:13:51;98256.03;;;23.91;36.17
69971;BME280;57301;50.328;8.542;2023-09-19T13:22:39;98252.94;;;23.02;39.20
69971;BME280;57301;50.328;8.542;2023-09-19T13:25:08;98251.88;;;22.44;40.80
69971;BME280;57301;50.328;8.542;2023-09-19T13:27:41;98251.75;;;22.63;40.85
69971;BME280;57301;50.328;8.542;2023-09-19T13:30:08;98245.38;;;23.61;38.50
69971;BME280;57301;50.328;8.542;2023-09-19T13:32:35;98252.69;;;24.68;37.29
69971;BME280;57301;50.328;8.542;2023-09-19T13:35:01;98238.78;;;25.30;35.99
69971;BME280;57301;50.328;8.542;2023-09-19T13:37:28;98237.22;;;24.96;35.53
69971;BME280;57301;50.328;8.542;2023-09-19T13:39:55;98232.34;;;24.98;35.45
69971;BME280;57301;50.328;8.542;2023-09-19T13:42:21;98237.56;;;24.99;35.35
69971;BME280;57301;50.328;8.542;2023-09-19T13:44:48;98248.50;;;24.44;36.93
69971;BME280;57301;50.328;8.542;2023-09-19T13:47:14;98236.59;;;24.50;36.86
69971;BME280;57301;50.328;8.542;2023-09-19T13:49:42;98238.16;;;24.84;37.32
69971;BME280;57301;50.328;8.542;2023-09-19T13:52:09;98233.41;;;25.13;36.06
69971;BME280;57301;50.328;8.542;2023-09-19T13:54:35;98231.31;;;25.04;36.27
69971;BME280;57301;50.328;8.542;2023-09-19T13:57:02;98235.25;;;24.91;36.91
69971;BME280;57301;50.328;8.542;2023-09-19T13:59:28;98232.56;;;24.19;37.49
69971;BME280;57301;50.328;8.542;2023-09-19T14:01:55;98233.38;;;24.19;37.38
69971;BME280;57301;50.328;8.542;2023-09-19T14:04:22;98233.09;;;22.90;40.03
69971;BME280;57301;50.328;8.542;2023-09-19T14:06:48;98239.25;;;23.66;39.93
69971;BME280;57301;50.328;8.542;2023-09-19T14:09:15;98229.22;;;23.54;38.67
69971;BME280;57301;50.328;8.542;2023-09-19T14:11:45;98219.94;;;22.98;39.75
69971;BME280;57301;50.328;8.542;2023-09-19T14:14:13;98220.72;;;21.82;42.73
69971;BME280;57301;50.328;8.542;2023-09-19T14:16:40;98226.56;;;23.71;39.95
69971;BME280;57301;50.328;8.542;2023-09-19T14:19:08;98232.97;;;23.25;39.15
69971;BME280;57301;50.328;8.542;2023-09-19T14:21:35;98223.38;;;22.94;39.31
69971;BME280;57301;50.328;8.542;2023-09-19T14:24:03;98212.13;;;23.71;37.42
69971;BME280;57301;50.328;8.542;2023-09-19T14:26:29;98224.50;;;24.12;37.32